Weather reports worldwide

Advertisment
Reading University Whiteknights, United Kingdom (99183): temperature & dewpoint: 10.12.2019 12:00:00 - 16.12.2019 12:00:00 (GMT)Reading University Whiteknights, United Kingdom (99183): temperature -20cm & temperature -100cm: 10.12.2019 12:00:00 - 16.12.2019 12:00:00 (GMT)Reading University Whiteknights, United Kingdom (99183): sunshine duration: 10.12.2019 12:00:00 - 16.12.2019 12:00:00 (GMT)Reading University Whiteknights, United Kingdom (99183): precipitation: 10.12.2019 12:00:00 - 16.12.2019 12:00:00 (GMT)
Date & Time tt [°C] td [°C] tt -20cm [°C] tt -100cm [°C] sd [min] rr [mm]
16.12.2019 12:00:00 7,6 6,1 - - 0 0,0
16.12.2019 11:00:00 7,4 5,9 - - 0 0,0
16.12.2019 10:00:00 6,8 5,2 - - 0 0,0
16.12.2019 09:00:00 6,1 4,7 6,5 8,5 0 0,0
16.12.2019 08:00:00 6,6 5,0 - - 0 0,0
16.12.2019 07:00:00 6,5 5,5 - - 0 0,0
16.12.2019 06:00:00 6,2 5,1 - - 0 0,0
16.12.2019 05:00:00 6,3 5,0 - - 0 0,0
16.12.2019 04:00:00 6,6 5,2 - - 0 0,0
16.12.2019 03:00:00 6,8 5,4 - - 0 0,0
16.12.2019 02:00:00 6,3 4,8 - - 0 0,0
16.12.2019 01:00:00 6,3 4,6 - - 0 0,0
16.12.2019 00:00:00 5,9 4,1 - - - 0,4
15.12.2019 23:00:00 5,0 4,2 - - 0 4,4
15.12.2019 22:00:00 6,7 5,5 - - 0 0,8
15.12.2019 21:00:00 7,1 4,8 - - 0 0,8
15.12.2019 20:00:00 6,6 4,8 - - 0 1,2
15.12.2019 19:00:00 7,2 4,8 - - 0 0,2
15.12.2019 18:00:00 7,6 4,7 - - 0 0,2
15.12.2019 17:00:00 8,2 3,3 - - 0 0,0
15.12.2019 16:00:00 8,4 2,6 - - 18 0,0
15.12.2019 15:00:00 9,1 2,4 - - 18 0,0
15.12.2019 14:00:00 8,9 3,3 - - 54 0,0
15.12.2019 13:00:00 8,6 3,2 - - 42 0,0
15.12.2019 12:00:00 9,1 3,7 - - 60 0,0
15.12.2019 11:00:00 8,1 3,2 - - 54 0,0
15.12.2019 10:00:00 6,8 3,2 - - 0 0,0
15.12.2019 09:00:00 5,6 2,4 6,5 8,7 0 0,0
15.12.2019 08:00:00 5,3 2,1 - - 0 0,0
15.12.2019 07:00:00 5,1 1,2 - - 0 0,0
15.12.2019 06:00:00 4,5 0,9 - - 0 0,0
15.12.2019 05:00:00 4,6 0,8 - - 0 0,0
15.12.2019 04:00:00 5,0 0,7 - - 0 0,0
15.12.2019 03:00:00 5,9 2,2 - - 0 0,0
15.12.2019 02:00:00 6,0 3,8 - - 0 0,0
15.12.2019 01:00:00 5,9 3,9 - - 0 0,0
15.12.2019 00:00:00 6,0 4,0 - - - 3,0
14.12.2019 23:00:00 7,0 5,5 - - 0 1,6
14.12.2019 22:00:00 7,9 5,8 - - 0 3,4
14.12.2019 21:00:00 8,1 5,8 - - 0 0,6
14.12.2019 20:00:00 7,0 3,0 - - 0 0,0
14.12.2019 19:00:00 4,5 0,1 - - 0 0,0
14.12.2019 18:00:00 5,2 -0,2 - - 0 0,0
14.12.2019 17:00:00 5,5 0,1 - - 0 0,0
14.12.2019 16:00:00 6,5 0,2 - - 0 0,0
14.12.2019 15:00:00 7,0 0,4 - - 24 0,0
14.12.2019 14:00:00 7,1 0,2 - - 36 0,0
14.12.2019 13:00:00 7,3 -1,0 - - 48 0,0
14.12.2019 12:00:00 7,0 0,1 - - 60 0,0
14.12.2019 11:00:00 5,2 2,1 - - 24 0,0
14.12.2019 10:00:00 7,1 3,4 - - 0 0,0
14.12.2019 09:00:00 6,0 2,4 6,7 8,7 0 0,0
14.12.2019 08:00:00 5,1 1,5 - - 0 0,0
14.12.2019 07:00:00 4,4 0,1 - - 0 0,0
14.12.2019 06:00:00 5,4 -0,3 - - 0 0,0
14.12.2019 05:00:00 5,7 0,9 - - 0 0,0
14.12.2019 04:00:00 5,4 3,4 - - 0 0,0
14.12.2019 03:00:00 4,5 3,2 - - 0 0,2
14.12.2019 02:00:00 4,0 2,7 - - 0 0,0
14.12.2019 01:00:00 4,8 3,5 - - 0 0,0
14.12.2019 00:00:00 4,9 4,3 - - - 0,6
13.12.2019 23:00:00 4,9 4,2 - - 0 0,6
13.12.2019 22:00:00 5,1 3,8 - - 0 0,2
13.12.2019 21:00:00 5,5 3,2 - - 0 0,2
13.12.2019 20:00:00 5,9 1,8 - - 0 0,0
13.12.2019 19:00:00 6,1 1,4 - - 0 0,0
13.12.2019 18:00:00 6,5 1,4 - - 0 0,0
13.12.2019 17:00:00 6,7 0,7 - - 0 0,0
13.12.2019 16:00:00 7,2 0,9 - - 12 0,0
13.12.2019 15:00:00 8,0 1,1 - - 12 0,0
13.12.2019 14:00:00 7,8 1,7 - - 6 0,0
13.12.2019 13:00:00 8,1 1,5 - - 54 0,0
13.12.2019 12:00:00 7,6 1,5 - - 54 0,0
13.12.2019 11:00:00 7,4 1,8 - - 30 0,0
13.12.2019 10:00:00 7,1 2,3 - - 0 0,0
13.12.2019 09:00:00 6,5 2,2 6,7 8,7 0 0,0
13.12.2019 08:00:00 6,3 2,7 - - 0 0,0
13.12.2019 07:00:00 6,5 2,9 - - 0 0,0
13.12.2019 06:00:00 6,5 2,9 - - 0 0,0
13.12.2019 05:00:00 6,5 2,9 - - 0 0,0
13.12.2019 04:00:00 6,7 3,5 - - 0 0,0
13.12.2019 03:00:00 6,9 4,4 - - 0 0,0
13.12.2019 02:00:00 6,8 5,2 - - 0 0,6
13.12.2019 01:00:00 6,7 5,6 - - 0 0,4
13.12.2019 00:00:00 6,9 5,7 - - - 2,0
12.12.2019 23:00:00 7,2 6,4 - - 0 1,8
12.12.2019 22:00:00 7,5 6,1 - - 0 0,0
12.12.2019 21:00:00 7,6 6,1 - - 0 0,0
12.12.2019 20:00:00 8,0 6,2 - - 0 0,0
12.12.2019 19:00:00 7,8 6,3 - - 0 0,0
12.12.2019 18:00:00 8,0 6,9 - - 0 0,2
12.12.2019 17:00:00 8,2 7,5 - - 0 3,0
12.12.2019 16:00:00 8,0 7,2 - - 0 1,6
12.12.2019 15:00:00 8,3 6,9 - - 0 0,6
12.12.2019 14:00:00 8,8 7,9 - - 0 0,8
12.12.2019 13:00:00 8,6 8,0 - - 0 0,8
12.12.2019 12:00:00 7,8 7,2 - - 0 1,8
12.12.2019 11:00:00 7,0 6,3 - - 0 3,2
12.12.2019 10:00:00 5,3 4,7 - - 0 0,6
12.12.2019 09:00:00 4,4 3,6 6,5 8,9 0 0,2
12.12.2019 08:00:00 3,7 2,4 - - 0 0,0
12.12.2019 07:00:00 3,2 1,6 - - 0 0,2
12.12.2019 06:00:00 2,1 0,8 - - 0 0,0
12.12.2019 05:00:00 1,7 0,4 - - 0 0,0
12.12.2019 04:00:00 1,6 0,5 - - 0 0,0
12.12.2019 03:00:00 1,1 0,2 - - 0 0,0
12.12.2019 02:00:00 1,2 0,1 - - 0 0,0
12.12.2019 01:00:00 0,8 0,0 - - 0 0,0
12.12.2019 00:00:00 0,6 -0,3 - - - 0,0
11.12.2019 23:00:00 1,8 0,7 - - 0 0,0
11.12.2019 22:00:00 2,2 1,2 - - 0 0,0
11.12.2019 21:00:00 2,2 1,2 - - 0 0,0
11.12.2019 20:00:00 2,6 1,4 - - 0 0,0
11.12.2019 19:00:00 3,6 2,1 - - 0 0,0
11.12.2019 18:00:00 4,1 2,4 - - 0 0,0
11.12.2019 17:00:00 4,5 2,5 - - 0 0,2
11.12.2019 16:00:00 5,5 3,2 - - 0 0,0
11.12.2019 15:00:00 6,6 3,6 - - 6 0,0
11.12.2019 14:00:00 6,9 4,4 - - 12 0,2
11.12.2019 13:00:00 7,0 3,4 - - 30 0,0
11.12.2019 12:00:00 8,0 4,3 - - 48 0,0
11.12.2019 11:00:00 6,8 3,8 - - 42 0,0
11.12.2019 10:00:00 5,6 3,6 - - 0 0,0
11.12.2019 09:00:00 3,9 2,8 7,2 9,0 0 0,0
11.12.2019 08:00:00 3,0 2,1 - - 0 0,2
11.12.2019 07:00:00 2,5 1,5 - - 0 0,0
11.12.2019 06:00:00 2,4 1,5 - - 0 0,0
11.12.2019 05:00:00 3,3 2,0 - - 0 0,0
11.12.2019 04:00:00 3,7 2,2 - - 0 0,0
11.12.2019 03:00:00 4,6 2,9 - - 0 0,0
11.12.2019 02:00:00 4,9 3,4 - - 0 0,0
11.12.2019 01:00:00 5,2 3,5 - - 0 0,0
11.12.2019 00:00:00 6,5 3,8 - - - 0,0
10.12.2019 23:00:00 7,5 4,5 - - 0 0,0
10.12.2019 22:00:00 8,3 5,8 - - 0 0,0
10.12.2019 21:00:00 8,7 6,7 - - 0 0,4
10.12.2019 20:00:00 9,8 7,6 - - 0 2,4
10.12.2019 19:00:00 11,7 10,5 - - 0 0,4
10.12.2019 18:00:00 11,2 10,1 - - 0 0,2
10.12.2019 17:00:00 10,8 9,6 - - 0 0,2
10.12.2019 16:00:00 10,2 9,0 - - 0 0,0
10.12.2019 15:00:00 10,2 9,0 - - 0 0,2
10.12.2019 14:00:00 9,6 8,5 - - 0 0,2
10.12.2019 13:00:00 9,0 7,9 - - 0 0,0
10.12.2019 12:00:00 9,2 7,8 - - 0 0,2

tt = temperature
td = dewpoint
tt -20cm = temperature -20cm
tt -100cm = temperature -100cm
sd = sunshine duration
rr = precipitation

Next stations